Latest Weather Observations for Victoria River Downs

IDD60801

Issued at 4:31 pm CST Monday 26 September 2016 (issued every 30 minutes, with the page automatically refreshed every 10 minutes)

About weather observations | Map of weather stations | Latest weather observations for NT | Other Formats
Station Details ID: 014825 Name: VICTORIA RIVER DOWNS Lat: -16.40 Lon: 131.01 Height: 88.5 m
Data from the previous 72 hours. | See also: Recent months at Victoria River Downs
Date/Time
CST
Temp
°C
App
Temp
°C
Dew
Point
°C
Rel
Hum
%
Delta-T
°C
Wind Press
QNH
hPa
Press
MSL
hPa
Rain since
9am
mm
Dir  Spd
km/h
Gust
km/h
Spd
kts
Gust
kts
26/04:30pm 37.9 37.6 14.5 25 14.7 NNE 9 15 5 8 1006.2 - 0.0
26/04:00pm 37.7 37.4 14.3 25 14.6 N 9 15 5 8 1006.1 - 0.0
26/03:30pm 37.4 37.2 14.6 25 14.3 NNE 9 19 5 10 1006.3 - 0.0
26/03:00pm 38.0 38.1 14.5 24 14.8 ESE 7 22 4 12 1006.4 1006.0 0.0
26/02:30pm 37.7 38.0 14.9 26 14.4 NE 7 11 4 6 1006.7 - 0.0
26/02:00pm 38.0 38.0 15.2 26 14.4 NE 9 17 5 9 1007.1 - 0.0
26/01:30pm 37.2 37.3 14.5 26 14.2 NNW 7 15 4 8 1007.7 - 0.0
26/01:00pm 36.6 35.8 14.0 26 14.0 NE 11 19 6 10 1008.2 - 0.0
26/12:30pm 36.8 36.3 15.8 28 13.3 N 13 20 7 11 1008.9 - 0.0
26/12:00pm 36.5 36.4 15.0 27 13.5 NNW 9 20 5 11 1009.4 1009.1 0.0
26/11:30am 35.5 34.4 14.2 28 13.2 NNW 13 19 7 10 1009.9 - 0.0
26/11:00am 35.1 34.2 14.9 29 12.6 NNW 13 22 7 12 1010.3 - 0.0
26/10:30am 34.7 34.9 14.6 30 12.5 NNW 7 15 4 8 1010.6 - 0.0
26/10:00am 33.8 33.1 14.3 31 12.0 N 11 17 6 9 1011.0 - 0.0
26/09:30am 33.0 32.2 14.1 32 11.6 NNE 11 15 6 8 1010.9 - 0.0
26/09:00am 32.0 31.7 15.5 37 10.3 NNE 11 15 6 8 1011.0 1010.5 0.0
26/08:30am 30.8 30.6 16.8 43 8.8 N 13 17 7 9 1010.7 - 0.0
26/08:00am 27.8 30.3 18.2 56 6.1 NW 2 6 1 3 1010.4 - 0.0
26/07:30am 26.0 29.2 18.9 65 4.6 CALM 0 0 0 0 1009.9 - 0.0
26/07:00am 24.6 27.8 18.8 70 3.7 CALM 0 0 0 0 1009.6 - 0.0
26/06:30am 24.6 26.2 18.3 68 4.0 E 7 9 4 5 1009.0 - 0.0
26/06:00am 24.7 27.5 17.9 66 4.3 CALM 0 0 0 0 1008.4 1007.7 0.0
26/05:30am 25.0 26.8 18.4 66 4.2 ESE 6 7 3 4 1007.7 - 0.0
26/05:00am 25.7 27.5 17.4 60 5.2 SSE 4 9 2 5 1007.4 - 0.0
26/04:30am 25.4 28.5 18.6 66 4.3 CALM 0 0 0 0 1007.2 - 0.0
26/04:00am 25.9 28.6 17.8 61 5.1 CALM 0 0 0 0 1007.1 - 0.0
26/03:30am 26.3 28.3 17.9 60 5.3 SE 4 7 2 4 1007.2 - 0.0
26/03:00am 26.8 29.1 16.7 54 6.3 CALM 0 11 0 6 1007.4 1006.9 0.0
26/02:30am 27.5 28.5 16.8 52 6.7 W 7 9 4 5 1007.4 - 0.0
26/02:00am 28.9 29.3 15.4 44 8.3 NW 7 9 4 5 1007.7 - 0.0
26/01:30am 29.9 29.9 15.2 41 9.0 W 9 15 5 8 1008.0 - 0.0
26/01:00am 29.2 29.2 15.3 42 8.5 NNW 9 11 5 6 1008.1 - 0.0
26/12:30am 29.0 29.4 16.2 46 8.0 NNW 9 9 5 5 1008.4 - 0.0
26/12:00am 29.1 29.6 16.6 46 7.8 NNW 9 11 5 6 1008.6 1008.2 0.0
 
Date/Time
CST
Temp
°C
App
Temp
°C
Dew
Point
°C
Rel
Hum
%
Delta-T
°C
Wind Press
QNH
hPa
Press
MSL
hPa
Rain since
9am
mm
Dir  Spd
km/h
Gust
km/h
Spd
kts
Gust
kts
25/11:30pm 28.9 29.8 16.5 47 7.8 NNW 7 9 4 5 1008.6 - 0.0
25/11:00pm 29.2 30.4 17.4 49 7.5 W 7 13 4 7 1008.7 - 0.0
25/10:30pm 29.4 31.2 18.2 51 7.2 N 6 7 3 4 1008.7 - 0.0
25/10:00pm 29.7 31.0 17.2 47 7.9 NNW 6 7 3 4 1008.6 - 0.0
25/09:30pm 30.7 32.7 15.9 40 9.2 CALM 0 0 0 0 1008.3 - 0.0
25/09:00pm 30.0 32.2 19.1 52 7.1 SW 6 15 3 8 1008.1 1007.5 0.0
25/08:30pm 30.9 32.5 16.9 43 8.9 SSE 4 6 2 3 1007.7 - 0.0
25/08:00pm 31.7 32.7 16.8 40 9.4 NE 7 7 4 4 1007.2 - 0.0
25/07:30pm 32.9 33.9 16.3 37 10.5 ENE 6 7 3 4 1006.7 - 0.0
25/07:00pm 33.7 35.7 16.1 34 11.1 CALM 0 0 0 0 1006.4 - 0.0
25/06:30pm 35.1 36.5 14.4 29 12.8 CALM 0 0 0 0 1006.0 - 0.0
25/06:00pm 36.6 36.1 12.7 23 14.6 NW 7 9 4 5 1005.7 1005.1 0.0
25/05:30pm 37.4 36.6 12.8 23 15.0 NW 9 11 5 6 1005.5 - 0.0
25/05:00pm 37.1 37.0 13.2 24 14.7 NW 6 17 3 9 1005.5 - 0.0
25/04:30pm 37.2 36.3 12.6 23 15.0 WNW 9 17 5 9 1005.5 - 0.0
25/04:00pm 37.3 35.1 13.3 23 14.8 WNW 17 24 9 13 1005.5 - 0.0
25/03:30pm 38.0 37.3 13.3 23 15.2 NNE 9 15 5 8 1005.7 - 0.0
25/03:00pm 37.8 37.5 14.4 25 14.7 NW 9 20 5 11 1005.8 1005.4 0.0
25/02:30pm 38.8 38.3 13.9 22 15.5 NNW 9 17 5 9 1006.1 - 0.0
25/02:00pm 38.3 38.1 14.8 25 14.8 SW 9 20 5 11 1006.5 - 0.0
25/01:30pm 35.8 36.1 14.4 27 13.3 SSW 6 13 3 7 1006.9 - 0.0
25/01:00pm 36.9 35.6 12.4 23 14.8 WNW 11 15 6 8 1007.5 - 0.0
25/12:30pm 36.2 34.9 13.6 25 13.9 SSW 13 20 7 11 1008.1 - 0.0
25/12:00pm 36.5 35.1 14.5 27 13.7 WNW 15 24 8 13 1008.7 1008.3 0.0
25/11:30am 35.8 34.6 13.9 27 13.5 W 13 26 7 14 1009.2 - 0.0
25/11:00am 35.2 34.2 14.5 29 12.8 W 13 28 7 15 1009.6 - 0.0
25/10:30am 35.1 34.8 16.4 32 11.9 W 13 22 7 12 1009.8 - 0.0
25/10:00am 33.7 33.4 16.5 35 10.9 WSW 13 19 7 10 1010.0 - 0.0
25/09:30am 32.7 32.4 16.5 37 10.3 W 13 26 7 14 1010.2 - 0.0
25/09:00am 31.0 31.3 17.0 43 8.9 WSW 11 26 6 14 1010.1 1009.5 0.0
25/08:30am 30.1 30.7 16.9 45 8.3 WNW 9 15 5 8 1009.8 - 0.0
25/08:00am 28.6 29.9 18.4 54 6.6 N 9 11 5 6 1009.5 - 0.0
25/07:30am 28.3 30.1 18.4 55 6.4 NE 6 7 3 4 1009.2 - 0.0
25/07:00am 26.0 28.2 18.4 63 4.8 NNE 4 7 2 4 1009.0 - 0.0
25/06:30am 26.0 28.3 16.8 57 5.7 CALM 0 0 0 0 1008.7 - 0.0
25/06:00am 26.6 27.5 16.5 54 6.3 W 7 9 4 5 1008.4 1007.8 0.0
25/05:30am 26.7 29.1 16.9 55 6.1 CALM 0 7 0 4 1008.0 - 0.0
25/05:00am 27.5 27.8 16.1 49 7.0 WNW 9 9 5 5 1007.4 - 0.0
25/04:30am 27.9 28.2 15.9 48 7.4 NNW 9 11 5 6 1007.3 - 0.0
25/04:00am 27.9 28.2 15.9 48 7.4 NNW 9 11 5 6 1007.3 - 0.0
25/03:30am 27.6 28.7 17.2 53 6.5 NNW 7 9 4 5 1007.2 - 0.0
25/03:00am 26.7 28.9 18.3 60 5.4 NW 4 9 2 5 1007.2 1006.6 0.0
25/02:30am 27.3 29.0 18.6 59 5.6 NNW 7 7 4 4 1007.2 - 0.0
25/02:00am 27.6 29.1 17.7 54 6.3 NE 6 7 3 4 1007.3 - 0.0
25/01:30am 28.2 30.3 18.9 57 6.0 N 6 13 3 7 1007.4 - 0.0
25/01:00am 27.4 30.2 19.7 63 5.0 NW 4 6 2 3 1007.5 - 0.0
25/12:30am 27.8 30.6 19.6 61 5.3 WNW 4 6 2 3 1007.5 - 0.0
25/12:00am 28.2 30.0 18.3 55 6.4 W 6 6 3 3 1007.7 1007.3 0.0
 
Date/Time
CST
Temp
°C
App
Temp
°C
Dew
Point
°C
Rel
Hum
%
Delta-T
°C
Wind Press
QNH
hPa
Press
MSL
hPa
Rain since
9am
mm
Dir  Spd
km/h
Gust
km/h
Spd
kts
Gust
kts
24/11:30pm 28.5 30.6 18.9 56 6.2 NNW 6 6 3 3 1007.9 - 0.0
24/11:00pm 28.5 30.7 18.3 54 6.5 NW 4 9 2 5 1008.1 - 0.0
24/10:30pm 28.7 32.0 19.1 56 6.2 CALM 0 0 0 0 1008.2 - 0.0
24/10:00pm 29.3 32.0 17.8 50 7.3 CALM 0 0 0 0 1008.2 - 0.0
24/09:30pm 30.1 32.7 17.5 46 8.0 CALM 0 7 0 4 1007.9 - 0.0
24/09:00pm 30.8 32.0 16.8 43 8.9 N 6 9 3 5 1007.7 1007.0 0.0
24/08:30pm 30.3 31.7 17.4 46 8.2 NNW 6 15 3 8 1007.4 - 0.0
24/08:00pm 31.0 33.4 17.0 43 8.9 CALM 0 0 0 0 1006.8 - 0.0
24/07:30pm 32.0 33.8 15.5 37 10.3 CALM 0 0 0 0 1006.4 - 0.0
24/07:00pm 33.3 34.9 14.8 32 11.5 CALM 0 0 0 0 1006.1 - 0.0
24/06:30pm 34.9 35.9 14.2 28 12.8 SW 2 6 1 3 1005.7 - 0.0
24/06:00pm 35.6 36.6 14.3 28 13.2 NNE 2 7 1 4 1005.3 1004.6 0.0
24/05:30pm 36.0 35.8 13.5 26 13.8 WNW 7 9 4 5 1005.2 - 0.0
24/05:00pm 35.8 34.6 13.9 27 13.5 NW 13 17 7 9 1005.1 - 0.0
24/04:30pm 37.1 36.6 13.8 25 14.4 NW 9 15 5 8 1005.1 - 0.0
24/04:00pm 36.7 36.3 14.1 26 14.0 NE 9 17 5 9 1005.2 - 0.0
24/03:30pm 37.1 37.4 15.0 27 13.9 NW 7 15 4 8 1005.5 - 0.0
24/03:00pm 35.7 36.2 14.9 29 13.0 W 6 15 3 8 1005.7 1005.3 0.0
24/02:30pm 35.6 35.2 15.3 29 12.8 N 11 19 6 10 1006.2 - 0.0
24/02:00pm 35.5 35.0 15.8 31 12.5 NNW 13 22 7 12 1006.7 - 0.0
24/01:30pm 35.7 34.8 15.9 30 12.6 NW 15 26 8 14 1007.3 - 0.0
24/01:00pm 35.7 35.2 16.9 32 12.1 NNW 15 33 8 18 1007.9 - 0.0
24/12:30pm 34.7 34.4 17.4 35 11.2 NNW 15 24 8 13 1008.5 - 0.0
24/12:00pm 33.8 33.0 16.2 35 11.2 N 15 24 8 13 1009.2 1008.7 0.0
24/11:30am 33.7 32.5 17.0 37 10.7 N 19 26 10 14 1009.8 - 0.0
24/11:00am 33.5 33.7 17.6 38 10.3 NNW 13 20 7 11 1010.2 - 0.0
24/10:30am 32.6 33.4 19.1 44 8.9 N 13 20 7 11 1010.7 - 0.0
24/10:00am 31.5 33.1 19.2 48 8.1 NW 9 13 5 7 1010.9 - 0.0
24/09:30am 30.5 32.8 21.3 58 6.2 N 11 15 6 8 1011.1 - 0.0
24/09:00am 29.1 31.9 21.6 64 5.0 NNW 9 17 5 9 1011.1 1010.6 0.0
24/08:30am 28.0 30.3 21.3 67 4.5 NNE 11 13 6 7 1011.2 - 0.0
24/08:00am 27.0 29.3 21.3 71 3.8 ENE 11 11 6 6 1010.8 - 0.0
24/07:30am 24.8 27.6 20.9 79 2.6 NNE 7 7 4 4 1010.2 - 0.0
24/07:00am 24.1 28.2 20.8 82 2.2 CALM 0 0 0 0 1009.8 - 0.0
24/06:30am 23.9 28.0 20.8 83 2.0 CALM 0 0 0 0 1009.6 - 0.0
24/06:00am 24.3 28.2 20.4 79 2.5 CALM 0 0 0 0 1009.3 1008.7 0.0
24/05:30am 24.6 27.5 20.7 79 2.6 W 6 7 3 4 1009.0 - 0.0
24/05:00am 24.7 27.9 20.6 78 2.7 W 4 7 2 4 1008.6 - 0.0
24/04:30am 24.5 27.4 20.6 79 2.6 WNW 6 7 3 4 1008.5 - 0.0
24/04:00am 24.5 27.3 20.4 78 2.7 W 6 7 3 4 1008.3 - 0.0
24/03:30am 24.7 27.6 20.6 78 2.7 WSW 6 7 3 4 1008.3 - 0.0
24/03:00am 24.8 27.0 20.5 77 2.8 NW 9 9 5 5 1008.3 1007.9 0.0
24/02:30am 24.7 27.4 20.6 78 2.7 WNW 7 9 4 5 1008.4 - 0.0
24/02:00am 25.1 29.1 20.6 76 3.0 CALM 0 0 0 0 1008.4 - 0.0
24/01:30am 25.4 29.0 19.8 71 3.6 CALM 0 0 0 0 1008.5 - 0.0
24/01:00am 26.0 28.3 19.9 69 4.0 N 7 9 4 5 1008.7 - 0.0
24/12:30am 26.3 29.0 20.2 69 4.0 N 6 9 3 5 1008.8 - 0.0
24/12:00am 25.8 28.0 20.4 72 3.5 N 9 11 5 6 1009.0 1008.7 0.0
 
Date/Time
CST
Temp
°C
App
Temp
°C
Dew
Point
°C
Rel
Hum
%
Delta-T
°C
Wind Press
QNH
hPa
Press
MSL
hPa
Rain since
9am
mm
Dir  Spd
km/h
Gust
km/h
Spd
kts
Gust
kts
23/11:30pm 26.1 29.9 20.2 70 3.9 CALM 0 0 0 0 1009.3 - 0.0
23/11:00pm 26.4 30.3 20.3 69 4.0 CALM 0 2 0 1 1009.4 - 0.0
23/10:30pm 26.8 30.8 20.6 69 4.1 CALM 0 0 0 0 1009.6 - 0.0
23/10:00pm 27.0 30.7 19.9 65 4.6 CALM 0 0 0 0 1009.7 - 0.0
23/09:30pm 27.6 30.8 19.7 62 5.2 S 2 7 1 4 1009.7 - 0.0
23/09:00pm 28.2 30.1 19.7 60 5.6 SSE 9 11 5 6 1009.4 1008.8 0.0
23/08:30pm 28.4 30.0 19.9 60 5.6 S 11 15 6 8 1009.2 - 0.0
23/08:00pm 28.4 29.6 19.9 60 5.6 S 13 20 7 11 1008.7 - 0.0
23/07:30pm 28.6 28.5 19.5 58 5.9 S 19 32 10 17 1008.4 - 0.0
23/07:00pm 32.2 32.7 16.5 39 9.9 NW 9 13 5 7 1007.9 - 0.0
23/06:30pm 32.8 32.7 13.9 31 11.5 N 7 9 4 5 1007.4 - 0.0
23/06:00pm 33.4 33.5 14.5 32 11.7 N 7 13 4 7 1007.1 1006.6 0.0
23/05:30pm 33.5 32.5 13.5 29 12.2 NNW 11 15 6 8 1007.0 - 0.0
23/05:00pm 34.6 32.4 14.5 30 12.4 NNE 19 26 10 14 1006.7 - 0.0

Other Formats:

Comma delimited format used in spreadsheet applications
http://www.bom.gov.au/fwo/IDD60801/IDD60801.94232.axf

JavaScript Object Notation format (JSON) in row-major order
http://www.bom.gov.au/fwo/IDD60801/IDD60801.94232.json